Cochise — WDD8952 — position and weather

sailwx.info

Track history (hours):
 
Tides and Currents Weather Stations Pressure Air Temp Water Temp Dewpoint Dewpoint Depression Visibility Wind Speed Wind Dir Waves Ship Positions

Cochise

Owner: Sause Bros, Coos Bay, OR. More information available from US FCC via Universal Licensing System and Coast Guard Vessel Documentation Center.

Last reported at 2016-Jul-25 14:28 UTC. Time now 2016-Jul-27 15:21 UTC.
Position N 38°22' W 123°34'.

Length 32 m; draft 4.7 m.

Type: Towing. MMSI: 367304990.

Date/timePositionNaut miles runAvg speedWind from/ knotsBaromVisibWave heightAir tempDewpointWater temp
2016-Jul-25 14:28N 38°22' W 123°34'5 5.8
2016-Jul-25 13:33N 38°18' W 123°29'5 5.3
2016-Jul-25 12:33N 38°14' W 123°25'5 5.2
2016-Jul-25 11:33N 38°10' W 123°21'5 5.2
2016-Jul-25 10:33N 38°06' W 123°17'6 5.6
2016-Jul-25 09:33N 38°02' W 123°12'6 5.7
2016-Jul-25 08:28N 37°58' W 123°06'6 6.1
2016-Jul-25 07:33N 37°55' W 122°60'7 6.4
2016-Jul-25 06:29N 37°52' W 122°52'7 7.2
2016-Jul-25 05:27N 37°48' W 122°44'6 6.8
2016-Jul-25 04:33N 37°46' W 122°37'8 8.3
2016-Jul-25 03:33N 37°50' W 122°27'5 5.0
2016-Jul-25 02:34N 37°55' W 122°26'1 1.1
2016-Jul-25 01:34N 37°55' W 122°25'0 0.1
2016-Jul-25 00:33N 37°55' W 122°25'1 0.7
2016-Jul-24 23:33N 37°55' W 122°25'1 0.7
2016-Jul-24 22:26N 37°55' W 122°25'0 0.0
2016-Jul-24 21:32N 37°55' W 122°25'0 0.0
2016-Jul-24 19:08N 37°55' W 122°25'0 0.0
2016-Jul-24 18:29N 37°55' W 122°25'0 0.0
2016-Jul-24 17:32N 37°55' W 122°25'0 0.0
2016-Jul-24 16:32N 37°55' W 122°25'0 0.0
2016-Jul-24 15:32N 37°55' W 122°25'0 0.1
2016-Jul-24 13:22N 37°55' W 122°25'1 1.3
2016-Jul-24 12:28N 37°55' W 122°26'0 0.1
2016-Jul-24 11:31N 37°55' W 122°26'0 0.0
2016-Jul-24 10:28N 37°55' W 122°26'0 0.0
2016-Jul-24 09:22N 37°55' W 122°26'0 0.0
2016-Jul-24 08:04N 37°55' W 122°26'0 0.0
2016-Jul-24 07:28N 37°55' W 122°26'0 0.0
2016-Jul-24 06:28N 37°55' W 122°26'0 0.1
2016-Jul-24 05:28N 37°54' W 122°26'0 0.1
2016-Jul-24 04:31N 37°54' W 122°26'0 0.0
2016-Jul-24 03:31N 37°54' W 122°26'0 0.0
2016-Jul-24 02:19N 37°54' W 122°26'0 0.1
2016-Jul-24 01:28N 37°55' W 122°26'0 0.0
2016-Jul-24 00:22N 37°55' W 122°26'0 0.0
2016-Jul-23 23:28N 37°55' W 122°26'0 0.0
2016-Jul-23 22:28N 37°55' W 122°26'0 0.0
2016-Jul-23 21:31N 37°55' W 122°26'0 0.0
2016-Jul-23 20:28N 37°55' W 122°26'0 0.0
2016-Jul-23 19:28N 37°55' W 122°26'0 0.0
2016-Jul-23 18:28N 37°54' W 122°26'0 0.1
2016-Jul-23 17:31N 37°54' W 122°26'0 0.2
2016-Jul-23 16:30N 37°55' W 122°26'1 1.2
2016-Jul-23 15:32N 37°55' W 122°25'0 0.0
2016-Jul-23 14:32N 37°55' W 122°25'0 0.1
2016-Jul-23 13:33N 37°55' W 122°25'1 1.4
2016-Jul-23 12:33N 37°55' W 122°26'0 0.1
2016-Jul-23 11:33N 37°55' W 122°26'0 0.0
2016-Jul-23 10:33N 37°55' W 122°26'4 4.1
2016-Jul-23 09:33N 37°59' W 122°25'8 8.0
2016-Jul-23 08:33N 38°03' W 122°17'9 7.3
2016-Jul-23 07:22N 38°03' W 122°06'0 0.0
2016-Jul-23 04:33N 38°03' W 122°06'0 0.0
2016-Jul-23 03:33N 38°03' W 122°06'0 0.0
2016-Jul-23 02:33N 38°03' W 122°06'0 0.0
2016-Jul-23 01:32N 38°03' W 122°06'0 0.0
2016-Jul-23 00:15N 38°03' W 122°06'0 0.0
2016-Jul-22 23:32N 38°03' W 122°06'0 0.0
2016-Jul-22 22:33N 38°03' W 122°06'0 0.0
2016-Jul-22 13:33N 38°03' W 122°06'2 2.1
2016-Jul-22 12:33N 38°02' W 122°09'3 2.6
2016-Jul-22 11:32N 38°03' W 122°11'5 5.0
2016-Jul-22 10:33N 38°03' W 122°18'7 6.8
2016-Jul-22 09:33N 37°60' W 122°25'5 4.5
2016-Jul-22 08:27N 37°55' W 122°26'0 0.2
2016-Jul-22 07:31N 37°55' W 122°26'0 0.0
2016-Jul-22 04:31N 37°54' W 122°26'0 0.0
2016-Jul-22 03:34N 37°54' W 122°26'0 0.0
2016-Jul-22 02:34N 37°54' W 122°26'0 0.0
2016-Jul-22 01:34N 37°54' W 122°26'1 1.4
2016-Jul-22 00:33N 37°55' W 122°25'0 0.2
2016-Jul-21 23:26N 37°55' W 122°25'0 0.0
2016-Jul-21 21:32N 37°55' W 122°25'0 0.0
2016-Jul-21 20:29N 37°55' W 122°25'0 0.0
2016-Jul-21 19:29N 37°55' W 122°25'0 0.0
2016-Jul-21 17:23N 37°55' W 122°25'0 0.0
2016-Jul-21 16:32N 37°55' W 122°25'0 0.0
2016-Jul-21 15:29N 37°55' W 122°25'0 0.0
2016-Jul-21 13:23N 37°55' W 122°25'0 0.0
2016-Jul-21 12:17N 37°55' W 122°25'0 0.0
2016-Jul-21 10:11N 37°55' W 122°25'0 0.0
2016-Jul-21 09:23N 37°55' W 122°25'0 0.0
2016-Jul-21 08:32N 37°55' W 122°25'0 0.0
2016-Jul-21 07:32N 37°55' W 122°25'0 0.0
2016-Jul-21 06:29N 37°55' W 122°25'0 0.3
2016-Jul-21 05:29N 37°55' W 122°25'1 1.0
2016-Jul-21 04:29N 37°55' W 122°26'0 0.0
2016-Jul-21 03:32N 37°55' W 122°26'0 0.0
2016-Jul-21 01:29N 37°55' W 122°26'0 0.0
2016-Jul-21 00:32N 37°55' W 122°26'0 0.1
2016-Jul-20 23:32N 37°55' W 122°26'0 0.0
2016-Jul-20 21:23N 37°55' W 122°26'0 0.0
2016-Jul-20 20:32N 37°55' W 122°26'0 0.0
2016-Jul-20 19:32N 37°55' W 122°26'0 0.0
2016-Jul-20 17:17N 37°55' W 122°26'0 0.1
2016-Jul-20 16:17N 37°55' W 122°26'0 0.0
2016-Jul-20 15:29N 37°55' W 122°26'0 0.0
2016-Jul-20 14:11N 37°55' W 122°26'0 0.0
2016-Jul-20 13:29N 37°55' W 122°26'0 0.0
2016-Jul-20 12:16N 37°55' W 122°26'4 5.0
2016-Jul-20 11:33N 37°59' W 122°26'1110.7
2016-Jul-20 10:33N 38°04' W 122°13'5 0.2
2016-Jul-19 14:09N 38°02' W 122°07'4 4.3
2016-Jul-19 13:18N 38°03' W 122°12'3 4.5
2016-Jul-19 12:33N 38°04' W 122°16'4 4.1
2016-Jul-19 11:33N 38°03' W 122°21'5 4.7
2016-Jul-19 10:33N 37°60' W 122°25'4 4.0
2016-Jul-19 09:33N 37°56' W 122°25'0 0.4
2016-Jul-19 08:27N 37°55' W 122°25'0 0.0
2016-Jul-18 21:31N 37°55' W 122°25'1 0.1
2016-Jul-18 10:33N 37°55' W 122°26'12 8.9
2016-Jul-18 09:16N 38°04' W 122°16'7 0.4
2016-Jul-17 16:22N 38°02' W 122°08'5 5.9
2016-Jul-17 15:33N 38°04' W 122°14'6 5.8
2016-Jul-17 14:33N 38°03' W 122°21'7 6.0
2016-Jul-17 13:19N 37°56' W 122°26'1 1.8
2016-Jul-17 12:33N 37°55' W 122°25'0 0.0
2016-Jul-16 19:16N 37°55' W 122°24'1 0.7
2016-Jul-16 18:30N 37°55' W 122°25'6 6.7
2016-Jul-16 17:33N 37°50' W 122°28'1110.8
2016-Jul-16 16:33N 37°46' W 122°41'9 9.0
2016-Jul-16 15:33N 37°49' W 122°52'9 8.9
2016-Jul-16 14:33N 37°53' W 123°02'9 8.9
2016-Jul-16 13:33N 37°58' W 123°11'9 9.2
2016-Jul-16 12:33N 38°05' W 123°19'9 9.3
2016-Jul-16 11:33N 38°12' W 123°25'9 9.2
2016-Jul-16 10:33N 38°21' W 123°31'9 8.7
2016-Jul-16 09:33N 38°28' W 123°36'9 8.7
2016-Jul-16 08:32N 38°36' W 123°41'9 8.8
2016-Jul-16 07:33N 38°44' W 123°46'  
Track history (hours):
 
Tides and Currents Weather Stations Pressure Air Temp Water Temp Dewpoint Dewpoint Depression Visibility Wind Speed Wind Dir Waves Ship Positions

Cochise

Owner: Sause Bros, Coos Bay, OR. More information available from US FCC via Universal Licensing System and Coast Guard Vessel Documentation Center.

Last reported at 2016-Jul-25 14:28 UTC. Time now 2016-Jul-27 15:21 UTC.
Position N 38°22' W 123°34'.

Length 32 m; draft 4.7 m.

Type: Towing. MMSI: 367304990.

Date/timePositionNaut miles runAvg speedWind from/ knotsBaromVisibWave heightAir tempDewpointWater temp
2016-Jul-25 14:28N 38°22' W 123°34'5 5.8
2016-Jul-25 13:33N 38°18' W 123°29'5 5.3
2016-Jul-25 12:33N 38°14' W 123°25'5 5.2
2016-Jul-25 11:33N 38°10' W 123°21'5 5.2
2016-Jul-25 10:33N 38°06' W 123°17'6 5.6
2016-Jul-25 09:33N 38°02' W 123°12'6 5.7
2016-Jul-25 08:28N 37°58' W 123°06'6 6.1
2016-Jul-25 07:33N 37°55' W 122°60'7 6.4
2016-Jul-25 06:29N 37°52' W 122°52'7 7.2
2016-Jul-25 05:27N 37°48' W 122°44'6 6.8
2016-Jul-25 04:33N 37°46' W 122°37'8 8.3
2016-Jul-25 03:33N 37°50' W 122°27'5 5.0
2016-Jul-25 02:34N 37°55' W 122°26'1 1.1
2016-Jul-25 01:34N 37°55' W 122°25'0 0.1
2016-Jul-25 00:33N 37°55' W 122°25'1 0.7
2016-Jul-24 23:33N 37°55' W 122°25'1 0.7
2016-Jul-24 22:26N 37°55' W 122°25'0 0.0
2016-Jul-24 21:32N 37°55' W 122°25'0 0.0
2016-Jul-24 19:08N 37°55' W 122°25'0 0.0
2016-Jul-24 18:29N 37°55' W 122°25'0 0.0
2016-Jul-24 17:32N 37°55' W 122°25'0 0.0
2016-Jul-24 16:32N 37°55' W 122°25'0 0.0
2016-Jul-24 15:32N 37°55' W 122°25'0 0.1
2016-Jul-24 13:22N 37°55' W 122°25'1 1.3
2016-Jul-24 12:28N 37°55' W 122°26'0 0.1
2016-Jul-24 11:31N 37°55' W 122°26'0 0.0
2016-Jul-24 10:28N 37°55' W 122°26'0 0.0
2016-Jul-24 09:22N 37°55' W 122°26'0 0.0
2016-Jul-24 08:04N 37°55' W 122°26'0 0.0
2016-Jul-24 07:28N 37°55' W 122°26'0 0.0
2016-Jul-24 06:28N 37°55' W 122°26'0 0.1
2016-Jul-24 05:28N 37°54' W 122°26'0 0.1
2016-Jul-24 04:31N 37°54' W 122°26'0 0.0
2016-Jul-24 03:31N 37°54' W 122°26'0 0.0
2016-Jul-24 02:19N 37°54' W 122°26'0 0.1
2016-Jul-24 01:28N 37°55' W 122°26'0 0.0
2016-Jul-24 00:22N 37°55' W 122°26'0 0.0
2016-Jul-23 23:28N 37°55' W 122°26'0 0.0
2016-Jul-23 22:28N 37°55' W 122°26'0 0.0
2016-Jul-23 21:31N 37°55' W 122°26'0 0.0
2016-Jul-23 20:28N 37°55' W 122°26'0 0.0
2016-Jul-23 19:28N 37°55' W 122°26'0 0.0
2016-Jul-23 18:28N 37°54' W 122°26'0 0.1
2016-Jul-23 17:31N 37°54' W 122°26'0 0.2
2016-Jul-23 16:30N 37°55' W 122°26'1 1.2
2016-Jul-23 15:32N 37°55' W 122°25'0 0.0
2016-Jul-23 14:32N 37°55' W 122°25'0 0.1
2016-Jul-23 13:33N 37°55' W 122°25'1 1.4
2016-Jul-23 12:33N 37°55' W 122°26'0 0.1
2016-Jul-23 11:33N 37°55' W 122°26'0 0.0
2016-Jul-23 10:33N 37°55' W 122°26'4 4.1
2016-Jul-23 09:33N 37°59' W 122°25'8 8.0
2016-Jul-23 08:33N 38°03' W 122°17'9 7.3
2016-Jul-23 07:22N 38°03' W 122°06'0 0.0
2016-Jul-23 04:33N 38°03' W 122°06'0 0.0
2016-Jul-23 03:33N 38°03' W 122°06'0 0.0
2016-Jul-23 02:33N 38°03' W 122°06'0 0.0
2016-Jul-23 01:32N 38°03' W 122°06'0 0.0
2016-Jul-23 00:15N 38°03' W 122°06'0 0.0
2016-Jul-22 23:32N 38°03' W 122°06'0 0.0
2016-Jul-22 22:33N 38°03' W 122°06'0 0.0
2016-Jul-22 13:33N 38°03' W 122°06'2 2.1
2016-Jul-22 12:33N 38°02' W 122°09'3 2.6
2016-Jul-22 11:32N 38°03' W 122°11'5 5.0
2016-Jul-22 10:33N 38°03' W 122°18'7 6.8
2016-Jul-22 09:33N 37°60' W 122°25'5 4.5
2016-Jul-22 08:27N 37°55' W 122°26'0 0.2
2016-Jul-22 07:31N 37°55' W 122°26'0 0.0
2016-Jul-22 04:31N 37°54' W 122°26'0 0.0
2016-Jul-22 03:34N 37°54' W 122°26'0 0.0
2016-Jul-22 02:34N 37°54' W 122°26'0 0.0
2016-Jul-22 01:34N 37°54' W 122°26'1 1.4
2016-Jul-22 00:33N 37°55' W 122°25'0 0.2
2016-Jul-21 23:26N 37°55' W 122°25'0 0.0
2016-Jul-21 21:32N 37°55' W 122°25'0 0.0
2016-Jul-21 20:29N 37°55' W 122°25'0 0.0
2016-Jul-21 19:29N 37°55' W 122°25'0 0.0
2016-Jul-21 17:23N 37°55' W 122°25'0 0.0
2016-Jul-21 16:32N 37°55' W 122°25'0 0.0
2016-Jul-21 15:29N 37°55' W 122°25'0 0.0
2016-Jul-21 13:23N 37°55' W 122°25'0 0.0
2016-Jul-21 12:17N 37°55' W 122°25'0 0.0
2016-Jul-21 10:11N 37°55' W 122°25'0 0.0
2016-Jul-21 09:23N 37°55' W 122°25'0 0.0
2016-Jul-21 08:32N 37°55' W 122°25'0 0.0
2016-Jul-21 07:32N 37°55' W 122°25'0 0.0
2016-Jul-21 06:29N 37°55' W 122°25'0 0.3
2016-Jul-21 05:29N 37°55' W 122°25'1 1.0
2016-Jul-21 04:29N 37°55' W 122°26'0 0.0
2016-Jul-21 03:32N 37°55' W 122°26'0 0.0
2016-Jul-21 01:29N 37°55' W 122°26'0 0.0
2016-Jul-21 00:32N 37°55' W 122°26'0 0.1
2016-Jul-20 23:32N 37°55' W 122°26'0 0.0
2016-Jul-20 21:23N 37°55' W 122°26'0 0.0
2016-Jul-20 20:32N 37°55' W 122°26'0 0.0
2016-Jul-20 19:32N 37°55' W 122°26'0 0.0
2016-Jul-20 17:17N 37°55' W 122°26'0 0.1
2016-Jul-20 16:17N 37°55' W 122°26'0 0.0
2016-Jul-20 15:29N 37°55' W 122°26'0 0.0
2016-Jul-20 14:11N 37°55' W 122°26'0 0.0
2016-Jul-20 13:29N 37°55' W 122°26'0 0.0
2016-Jul-20 12:16N 37°55' W 122°26'4 5.0
2016-Jul-20 11:33N 37°59' W 122°26'1110.7
2016-Jul-20 10:33N 38°04' W 122°13'5 0.2
2016-Jul-19 14:09N 38°02' W 122°07'4 4.3
2016-Jul-19 13:18N 38°03' W 122°12'3 4.5
2016-Jul-19 12:33N 38°04' W 122°16'4 4.1
2016-Jul-19 11:33N 38°03' W 122°21'5 4.7
2016-Jul-19 10:33N 37°60' W 122°25'4 4.0
2016-Jul-19 09:33N 37°56' W 122°25'0 0.4
2016-Jul-19 08:27N 37°55' W 122°25'0 0.0
2016-Jul-18 21:31N 37°55' W 122°25'1 0.1
2016-Jul-18 10:33N 37°55' W 122°26'12 8.9
2016-Jul-18 09:16N 38°04' W 122°16'7 0.4
2016-Jul-17 16:22N 38°02' W 122°08'5 5.9
2016-Jul-17 15:33N 38°04' W 122°14'6 5.8
2016-Jul-17 14:33N 38°03' W 122°21'7 6.0
2016-Jul-17 13:19N 37°56' W 122°26'1 1.8
2016-Jul-17 12:33N 37°55' W 122°25'0 0.0
2016-Jul-16 19:16N 37°55' W 122°24'1 0.7
2016-Jul-16 18:30N 37°55' W 122°25'6 6.7
2016-Jul-16 17:33N 37°50' W 122°28'1110.8
2016-Jul-16 16:33N 37°46' W 122°41'9 9.0
2016-Jul-16 15:33N 37°49' W 122°52'9 8.9
2016-Jul-16 14:33N 37°53' W 123°02'9 8.9
2016-Jul-16 13:33N 37°58' W 123°11'9 9.2
2016-Jul-16 12:33N 38°05' W 123°19'9 9.3
2016-Jul-16 11:33N 38°12' W 123°25'9 9.2
2016-Jul-16 10:33N 38°21' W 123°31'9 8.7
2016-Jul-16 09:33N 38°28' W 123°36'9 8.7
2016-Jul-16 08:32N 38°36' W 123°41'9 8.8
2016-Jul-16 07:33N 38°44' W 123°46'  

Dump ship's entire track history